createdAt,value
2023-05-13T00:02:18.655Z,10.10
2023-05-13T00:04:46.659Z,10.20
2023-05-13T00:07:14.678Z,10.30
2023-05-13T00:09:44.130Z,10.40
2023-05-13T00:12:12.308Z,10.40
2023-05-13T00:14:40.271Z,10.40
2023-05-13T00:17:08.532Z,10.40
2023-05-13T00:19:36.642Z,10.40
2023-05-13T00:22:04.865Z,10.40
2023-05-13T00:24:32.820Z,10.30
2023-05-13T00:27:02.248Z,10.30
2023-05-13T00:29:33.047Z,10.30
2023-05-13T00:32:01.093Z,10.30
2023-05-13T00:34:29.259Z,10.30
2023-05-13T00:36:57.814Z,10.30
2023-05-13T00:39:25.863Z,10.30
2023-05-13T00:41:53.915Z,10.20
2023-05-13T00:44:23.479Z,10.10
2023-05-13T00:46:51.760Z,10.00
2023-05-13T00:49:19.867Z,10.00
2023-05-13T00:51:48.033Z,10.00
2023-05-13T00:54:16.113Z,10.10
2023-05-13T00:56:44.344Z,10.00
2023-05-13T00:59:13.332Z,9.90
2023-05-13T01:01:49.168Z,9.90
2023-05-13T01:04:28.470Z,9.80
2023-05-13T01:07:05.532Z,9.70
2023-05-13T01:09:43.354Z,9.80
2023-05-13T01:12:20.252Z,9.80
2023-05-13T01:14:55.354Z,9.90
2023-05-13T01:17:32.930Z,9.80
2023-05-13T01:20:03.919Z,9.80
2023-05-13T01:22:33.341Z,9.70
2023-05-13T01:25:01.879Z,9.70
2023-05-13T01:27:30.070Z,9.60
2023-05-13T01:29:58.651Z,9.60
2023-05-13T01:32:27.269Z,9.70
2023-05-13T01:34:56.684Z,9.70
2023-05-13T01:37:25.101Z,9.80
2023-05-13T01:39:54.643Z,9.80
2023-05-13T01:42:23.781Z,9.90
2023-05-13T01:44:52.781Z,9.90
2023-05-13T01:47:20.852Z,9.90
2023-05-13T01:49:48.952Z,10.00
2023-05-13T01:52:16.974Z,10.00
2023-05-13T01:54:45.076Z,10.00
2023-05-13T01:57:14.439Z,10.00
2023-05-13T01:59:42.474Z,10.10
2023-05-13T02:02:10.569Z,10.10
2023-05-13T02:04:38.907Z,10.00
2023-05-13T02:07:07.038Z,9.90
2023-05-13T02:09:35.106Z,9.90
2023-05-13T02:12:03.504Z,10.00
2023-05-13T02:14:34.365Z,9.90
2023-05-13T02:17:03.325Z,9.80
2023-05-13T02:19:33.493Z,9.80
2023-05-13T02:22:01.492Z,9.70
2023-05-13T02:24:31.139Z,9.80
2023-05-13T02:26:59.185Z,9.80
2023-05-13T02:29:27.364Z,9.80
2023-05-13T02:31:56.838Z,9.80
2023-05-13T02:34:24.979Z,9.80
2023-05-13T02:36:53.426Z,9.70
2023-05-13T02:39:21.530Z,9.80
2023-05-13T02:41:49.508Z,9.80
2023-05-13T02:44:17.640Z,9.80
2023-05-13T02:46:45.705Z,9.70
2023-05-13T02:49:15.088Z,9.70
2023-05-13T02:51:43.100Z,9.70
2023-05-13T02:54:11.177Z,9.60
2023-05-13T02:56:39.257Z,9.60
2023-05-13T02:59:07.332Z,9.50
2023-05-13T03:01:35.385Z,9.50
2023-05-13T03:04:03.694Z,9.50
2023-05-13T03:06:33.156Z,9.50
2023-05-13T03:09:01.125Z,9.50
2023-05-13T03:11:29.433Z,9.50
2023-05-13T03:13:57.437Z,9.50
2023-05-13T03:16:25.580Z,9.50
2023-05-13T03:18:53.642Z,9.50
2023-05-13T03:21:21.663Z,9.40
2023-05-13T03:23:51.224Z,9.50
2023-05-13T03:26:19.816Z,9.40
2023-05-13T03:28:47.774Z,9.40
2023-05-13T03:31:16.008Z,9.50
2023-05-13T03:33:44.441Z,9.50
2023-05-13T03:36:12.556Z,9.40
2023-05-13T03:38:40.714Z,9.30
2023-05-13T03:41:10.270Z,9.30
2023-05-13T03:43:38.296Z,9.30
2023-05-13T03:46:06.489Z,9.20
2023-05-13T03:48:34.572Z,9.20
2023-05-13T03:51:02.654Z,9.20
2023-05-13T03:53:30.820Z,9.30
2023-05-13T03:55:59.098Z,9.20
2023-05-13T03:58:28.608Z,9.30
2023-05-13T04:00:56.679Z,9.30
2023-05-13T04:03:24.848Z,9.30
2023-05-13T04:05:53.103Z,9.30
2023-05-13T04:08:21.475Z,9.30
2023-05-13T04:10:49.565Z,9.20
2023-05-13T04:13:17.704Z,9.20
2023-05-13T04:15:47.249Z,9.30
2023-05-13T04:18:15.213Z,9.30
2023-05-13T04:20:43.353Z,9.30
2023-05-13T04:23:11.584Z,9.40
2023-05-13T04:25:39.608Z,9.50
2023-05-13T04:28:07.581Z,9.40
2023-05-13T04:30:36.196Z,9.40
2023-05-13T04:33:16.793Z,9.30
2023-05-13T04:35:44.998Z,9.40
2023-05-13T04:38:13.783Z,9.50
2023-05-13T04:40:41.893Z,9.50
2023-05-13T04:43:09.923Z,9.30
2023-05-13T04:45:38.631Z,9.30
2023-05-13T04:48:08.605Z,9.30
2023-05-13T04:50:36.750Z,9.20
2023-05-13T04:53:05.165Z,9.20
2023-05-13T04:55:33.298Z,9.20
2023-05-13T04:58:01.522Z,9.20
2023-05-13T05:00:29.588Z,9.20
2023-05-13T05:02:58.007Z,9.20
2023-05-13T05:05:27.583Z,9.20
2023-05-13T05:08:03.677Z,9.20
2023-05-13T05:10:31.663Z,9.30
2023-05-13T05:12:59.998Z,9.30
2023-05-13T05:15:29.817Z,9.30
2023-05-13T05:17:58.377Z,9.50
2023-05-13T05:20:28.035Z,9.60
2023-05-13T05:22:55.952Z,9.60
2023-05-13T05:25:24.810Z,9.60
2023-05-13T05:27:53.000Z,9.60
2023-05-13T05:30:21.288Z,9.70
2023-05-13T05:32:49.693Z,9.70
2023-05-13T05:35:19.729Z,9.70
2023-05-13T05:37:49.213Z,9.60
2023-05-13T05:40:17.263Z,9.70
2023-05-13T05:42:46.520Z,9.70
2023-05-13T05:45:16.636Z,9.60
2023-05-13T05:47:44.828Z,9.70
2023-05-13T05:50:12.991Z,9.70
2023-05-13T05:52:41.147Z,9.60
2023-05-13T05:55:11.274Z,9.70
2023-05-13T05:57:39.424Z,9.60
2023-05-13T06:00:09.144Z,9.60
2023-05-13T06:02:37.316Z,9.60
2023-05-13T06:05:06.051Z,9.50
2023-05-13T06:07:34.017Z,9.60
2023-05-13T06:10:02.262Z,9.60
2023-05-13T06:12:32.234Z,9.70
2023-05-13T06:15:00.291Z,9.60
2023-05-13T06:17:28.293Z,9.70
2023-05-13T06:19:57.738Z,9.70
2023-05-13T06:22:25.746Z,9.70
2023-05-13T06:24:53.762Z,9.60
2023-05-13T06:27:21.825Z,9.60
2023-05-13T06:29:51.761Z,9.60
2023-05-13T06:32:20.585Z,9.60
2023-05-13T06:34:49.508Z,9.50
2023-05-13T06:37:17.570Z,9.60
2023-05-13T06:39:45.621Z,9.50
2023-05-13T06:42:14.283Z,9.50
2023-05-13T06:44:42.438Z,9.70
2023-05-13T06:47:15.834Z,9.80
2023-05-13T06:49:44.198Z,9.70
2023-05-13T06:52:12.212Z,9.80
2023-05-13T06:54:40.271Z,9.80
2023-05-13T06:57:08.314Z,9.70
2023-05-13T06:59:37.162Z,9.90
2023-05-13T07:02:09.887Z,10.10
2023-05-13T07:04:39.460Z,10.10
2023-05-13T07:07:07.455Z,10.10
2023-05-13T07:09:35.617Z,10.20
2023-05-13T07:12:03.638Z,10.20
2023-05-13T07:14:31.684Z,10.30
2023-05-13T07:16:59.759Z,10.40
2023-05-13T07:19:27.806Z,10.40
2023-05-13T07:21:57.257Z,10.40
2023-05-13T07:24:25.327Z,10.30
2023-05-13T07:26:53.304Z,10.30
2023-05-13T07:29:21.408Z,10.50
2023-05-13T07:31:49.397Z,10.50
2023-05-13T07:34:17.387Z,10.50
2023-05-13T07:36:46.044Z,10.40
2023-05-13T07:39:16.558Z,10.50
2023-05-13T07:41:44.528Z,10.70
2023-05-13T07:44:13.247Z,10.70
2023-05-13T07:46:41.236Z,10.80
2023-05-13T07:49:09.261Z,10.80
2023-05-13T07:51:37.620Z,10.80
2023-05-13T07:54:05.682Z,10.70
2023-05-13T07:56:34.997Z,10.60
2023-05-13T07:59:03.039Z,10.60
2023-05-13T08:01:31.197Z,10.60
2023-05-13T08:04:01.550Z,10.60
2023-05-13T08:06:29.712Z,10.80
2023-05-13T08:08:57.744Z,10.80
2023-05-13T08:11:26.297Z,10.70
2023-05-13T08:13:55.876Z,10.80
2023-05-13T08:16:24.035Z,10.70
2023-05-13T08:18:52.056Z,10.70
2023-05-13T08:21:20.063Z,10.70
2023-05-13T08:23:48.035Z,10.60
2023-05-13T08:26:15.983Z,10.60
2023-05-13T08:28:43.995Z,10.60
2023-05-13T08:31:14.689Z,10.60
2023-05-13T08:33:43.034Z,10.80
2023-05-13T08:36:11.307Z,10.70
2023-05-13T08:38:39.285Z,10.80
2023-05-13T08:41:07.857Z,10.90
2023-05-13T08:43:39.177Z,11.00
2023-05-13T08:46:11.184Z,11.10
2023-05-13T08:48:50.252Z,11.10
2023-05-13T08:51:18.265Z,11.10
2023-05-13T08:53:47.453Z,11.10
2023-05-13T08:56:15.439Z,11.20
2023-05-13T08:58:43.329Z,11.20
2023-05-13T09:01:11.402Z,11.30
2023-05-13T09:03:52.646Z,11.40
2023-05-13T09:06:20.975Z,11.40
2023-05-13T09:08:49.532Z,11.50
2023-05-13T09:11:17.836Z,11.50
2023-05-13T09:13:45.889Z,11.40
2023-05-13T09:16:15.365Z,11.40
2023-05-13T09:18:44.856Z,11.50
2023-05-13T09:21:25.826Z,11.50
2023-05-13T09:24:03.445Z,11.50
2023-05-13T09:26:31.551Z,11.40
2023-05-13T09:29:18.396Z,11.30
2023-05-13T09:31:48.817Z,11.20
2023-05-13T09:34:26.562Z,11.10
2023-05-13T09:37:04.945Z,11.00
2023-05-13T09:39:35.675Z,11.00
2023-05-13T09:42:05.438Z,11.00
2023-05-13T09:44:34.098Z,11.00
2023-05-13T09:47:03.441Z,11.10
2023-05-13T09:49:33.797Z,11.10
2023-05-13T09:52:02.121Z,11.10
2023-05-13T09:54:37.234Z,11.00
2023-05-13T09:57:06.078Z,11.00
2023-05-13T09:59:34.792Z,11.10
2023-05-13T10:02:06.292Z,11.00
2023-05-13T10:04:41.349Z,11.00
2023-05-13T10:07:11.014Z,11.10
2023-05-13T10:09:41.026Z,11.20
2023-05-13T10:12:10.500Z,11.20
2023-05-13T10:14:39.264Z,11.10
2023-05-13T10:17:09.276Z,11.10
2023-05-13T10:19:38.834Z,11.10
2023-05-13T10:22:07.653Z,11.20
2023-05-13T10:24:39.790Z,11.40
2023-05-13T10:27:08.583Z,11.60
2023-05-13T10:29:38.924Z,11.60
2023-05-13T10:32:09.002Z,11.80
2023-05-13T10:34:39.738Z,11.80
2023-05-13T10:37:26.086Z,11.90
2023-05-13T10:40:28.262Z,12.00
2023-05-13T10:43:11.241Z,11.90
2023-05-13T10:45:39.216Z,11.80
2023-05-13T10:48:08.452Z,11.80
2023-05-13T10:50:39.875Z,11.90
2023-05-13T10:53:18.824Z,11.90
2023-05-13T10:55:46.837Z,12.00
2023-05-13T10:58:16.092Z,12.00
2023-05-13T11:00:46.089Z,12.00
2023-05-13T11:03:16.108Z,12.10
2023-05-13T11:05:48.129Z,12.20
2023-05-13T11:08:36.976Z,12.30
2023-05-13T11:11:17.708Z,12.60
2023-05-13T11:13:45.935Z,12.60
2023-05-13T11:16:15.083Z,12.70
2023-05-13T11:18:43.296Z,12.80
2023-05-13T11:21:12.665Z,12.70
2023-05-13T11:23:53.537Z,12.80
2023-05-13T11:26:22.084Z,12.50
2023-05-13T11:29:01.308Z,12.50
2023-05-13T11:31:30.143Z,12.40
2023-05-13T11:34:09.640Z,12.20
2023-05-13T11:36:40.502Z,12.00
2023-05-13T11:39:11.251Z,12.10
2023-05-13T11:41:41.795Z,12.20
2023-05-13T11:44:10.448Z,12.20
2023-05-13T11:46:38.529Z,12.20
2023-05-13T11:49:07.494Z,12.20
2023-05-13T11:51:35.898Z,12.10
2023-05-13T11:54:06.344Z,12.20
2023-05-13T11:56:34.281Z,12.20
2023-05-13T11:59:15.684Z,12.10
2023-05-13T12:01:43.846Z,12.10
2023-05-13T12:04:11.917Z,12.10
2023-05-13T12:06:46.521Z,12.10
2023-05-13T12:09:15.960Z,12.20
2023-05-13T12:11:44.043Z,12.30
2023-05-13T12:14:12.065Z,12.30
2023-05-13T12:16:41.935Z,12.30
2023-05-13T12:19:10.218Z,12.20
2023-05-13T12:21:39.508Z,12.30
2023-05-13T12:24:20.028Z,12.30
2023-05-13T12:26:48.182Z,12.40
2023-05-13T12:29:16.314Z,12.30
2023-05-13T12:32:03.195Z,12.40
2023-05-13T12:34:35.516Z,12.40
2023-05-13T12:37:13.968Z,12.40
2023-05-13T12:39:44.083Z,12.30
2023-05-13T12:42:16.073Z,12.40
2023-05-13T12:44:45.721Z,12.30
2023-05-13T12:47:20.179Z,12.30
2023-05-13T12:49:54.979Z,12.30
2023-05-13T12:52:23.361Z,12.30
2023-05-13T12:54:52.772Z,12.20
2023-05-13T12:57:21.474Z,12.30
2023-05-13T12:59:49.414Z,12.40
2023-05-13T13:02:17.469Z,12.50
2023-05-13T13:04:45.453Z,12.70
2023-05-13T13:07:14.726Z,12.60
2023-05-13T13:09:42.799Z,12.60
2023-05-13T13:12:12.220Z,12.70
2023-05-13T13:14:40.149Z,12.70
2023-05-13T13:17:08.348Z,12.70
2023-05-13T13:19:37.457Z,12.70
2023-05-13T13:22:05.702Z,12.70
2023-05-13T13:24:33.680Z,12.70
2023-05-13T13:27:01.742Z,12.70
2023-05-13T13:29:31.159Z,12.80
2023-05-13T13:31:59.223Z,12.90
2023-05-13T13:34:27.291Z,12.90
2023-05-13T13:36:55.403Z,12.70
2023-05-13T13:39:23.405Z,12.90
2023-05-13T13:41:51.429Z,13.10
2023-05-13T13:44:19.506Z,13.40
2023-05-13T13:46:48.912Z,13.70
2023-05-13T13:49:23.748Z,13.90
2023-05-13T13:51:52.597Z,14.00
2023-05-13T13:54:20.939Z,13.80
2023-05-13T13:56:49.576Z,13.70
2023-05-13T13:59:19.200Z,13.60
2023-05-13T14:01:48.928Z,13.50
2023-05-13T14:04:20.310Z,13.50
2023-05-13T14:06:48.510Z,13.50
2023-05-13T14:09:17.075Z,13.50
2023-05-13T14:11:45.086Z,13.50
2023-05-13T14:14:13.294Z,13.40
2023-05-13T14:16:41.665Z,13.40
2023-05-13T14:19:12.342Z,13.40
2023-05-13T14:21:40.647Z,13.50
2023-05-13T14:24:11.904Z,13.60
2023-05-13T14:26:40.236Z,13.70
2023-05-13T14:29:08.289Z,13.60
2023-05-13T14:31:36.584Z,13.70
2023-05-13T14:34:07.817Z,13.60
2023-05-13T14:36:37.542Z,13.70
2023-05-13T14:39:05.596Z,13.60
2023-05-13T14:41:33.676Z,13.60
2023-05-13T14:44:02.077Z,13.60
2023-05-13T14:46:30.067Z,13.90
2023-05-13T14:48:58.123Z,13.90
2023-05-13T14:51:26.106Z,14.10
2023-05-13T14:53:55.941Z,14.50
2023-05-13T14:56:25.138Z,14.60
2023-05-13T14:58:53.531Z,14.60
2023-05-13T15:01:21.709Z,14.90
2023-05-13T15:03:49.775Z,14.80
2023-05-13T15:06:17.865Z,15.00
2023-05-13T15:08:45.957Z,15.00
2023-05-13T15:11:15.391Z,15.10
2023-05-13T15:13:43.394Z,15.20
2023-05-13T15:16:11.684Z,15.20
2023-05-13T15:18:39.731Z,15.10
2023-05-13T15:21:07.867Z,14.80
2023-05-13T15:23:35.913Z,14.60
2023-05-13T15:26:04.004Z,14.50
2023-05-13T15:28:33.455Z,14.50
2023-05-13T15:31:01.476Z,14.40
2023-05-13T15:33:29.604Z,14.30
2023-05-13T15:35:57.630Z,14.20
2023-05-13T15:38:25.655Z,14.00
2023-05-13T15:40:53.881Z,13.80
2023-05-13T15:43:21.918Z,13.40
2023-05-13T15:45:53.506Z,13.30
2023-05-13T15:48:21.827Z,13.10
2023-05-13T15:50:49.840Z,13.10
2023-05-13T15:53:17.915Z,13.10
2023-05-13T15:55:45.883Z,13.10
2023-05-13T15:58:13.844Z,13.20
2023-05-13T16:00:41.980Z,13.20
2023-05-13T16:03:11.363Z,13.20
2023-05-13T16:05:40.164Z,13.20
2023-05-13T16:08:08.110Z,13.10
2023-05-13T16:10:36.220Z,13.00
2023-05-13T16:13:04.198Z,13.00
2023-05-13T16:15:32.302Z,13.00
2023-05-13T16:18:00.303Z,12.90
2023-05-13T16:20:29.726Z,12.90
2023-05-13T16:22:57.659Z,13.00
2023-05-13T16:25:27.023Z,13.10
2023-05-13T16:27:56.588Z,13.10
2023-05-13T16:30:25.043Z,13.20
2023-05-13T16:32:54.501Z,13.10
2023-05-13T16:35:22.747Z,13.10
2023-05-13T16:37:52.158Z,13.10
2023-05-13T16:40:20.396Z,13.20
2023-05-13T16:42:48.553Z,13.30
2023-05-13T16:45:16.557Z,13.30
2023-05-13T16:47:44.660Z,13.30
2023-05-13T16:50:12.693Z,13.30
2023-05-13T16:52:40.744Z,13.20
2023-05-13T16:55:10.909Z,13.10
2023-05-13T16:57:38.826Z,13.10
2023-05-13T17:00:08.483Z,13.00
2023-05-13T17:02:36.892Z,13.00
2023-05-13T17:05:05.497Z,13.00
2023-05-13T17:07:33.645Z,12.90
2023-05-13T17:10:04.914Z,12.80
2023-05-13T17:12:34.483Z,12.80
2023-05-13T17:15:03.534Z,12.90
2023-05-13T17:17:31.605Z,12.90
2023-05-13T17:19:59.607Z,13.00
2023-05-13T17:22:27.941Z,13.00
2023-05-13T17:24:56.077Z,12.90
2023-05-13T17:27:24.268Z,12.90
2023-05-13T17:29:53.597Z,12.90
2023-05-13T17:32:22.282Z,12.90
2023-05-13T17:34:50.302Z,12.90
2023-05-13T17:37:18.299Z,12.80
2023-05-13T17:39:46.253Z,12.80
2023-05-13T17:42:14.289Z,12.80
2023-05-13T17:44:42.329Z,12.70
2023-05-13T17:47:11.682Z,12.70
2023-05-13T17:49:39.703Z,12.70
2023-05-13T17:52:07.971Z,12.70
2023-05-13T17:54:37.012Z,12.70
2023-05-13T17:57:05.319Z,12.60
2023-05-13T17:59:33.416Z,12.60
2023-05-13T18:02:03.859Z,12.60
2023-05-13T18:04:33.250Z,12.50
2023-05-13T18:07:05.986Z,12.50
2023-05-13T18:09:34.024Z,12.50
2023-05-13T18:12:03.138Z,12.50
2023-05-13T18:14:32.363Z,12.40
2023-05-13T18:17:01.861Z,12.40
2023-05-13T18:19:29.799Z,12.40
2023-05-13T18:21:59.580Z,12.30
2023-05-13T18:24:27.671Z,12.30
2023-05-13T18:26:55.746Z,12.30
2023-05-13T18:29:24.186Z,12.20
2023-05-13T18:31:52.235Z,12.20
2023-05-13T18:34:20.339Z,12.20
2023-05-13T18:36:48.879Z,12.10
2023-05-13T18:39:19.640Z,12.10
2023-05-13T18:41:47.553Z,12.20
2023-05-13T18:44:15.544Z,12.30
2023-05-13T18:46:44.422Z,12.30
2023-05-13T18:49:12.588Z,12.20
2023-05-13T18:51:40.612Z,12.20
2023-05-13T18:54:14.860Z,12.10
2023-05-13T18:56:44.987Z,11.90
2023-05-13T18:59:13.431Z,11.90
2023-05-13T19:01:42.286Z,11.80
2023-05-13T19:04:12.314Z,11.70
2023-05-13T19:06:40.908Z,11.70
2023-05-13T19:09:08.922Z,11.60
2023-05-13T19:11:42.028Z,11.50
2023-05-13T19:14:12.766Z,11.40
2023-05-13T19:16:40.827Z,11.40
2023-05-13T19:19:08.867Z,11.40
2023-05-13T19:21:36.880Z,11.40
2023-05-13T19:24:05.329Z,11.40
2023-05-13T19:26:33.515Z,11.40
2023-05-13T19:29:01.556Z,11.50
2023-05-13T19:31:32.187Z,11.50
2023-05-13T19:34:01.439Z,11.50
2023-05-13T19:36:29.557Z,11.50
2023-05-13T19:38:57.863Z,11.50
2023-05-13T19:41:26.126Z,11.50
2023-05-13T19:43:54.066Z,11.40
2023-05-13T19:46:23.870Z,11.30
2023-05-13T19:48:53.419Z,11.30
2023-05-13T19:51:21.544Z,11.20
2023-05-13T19:53:52.330Z,11.10
2023-05-13T19:56:21.160Z,11.00
2023-05-13T19:58:49.248Z,10.90
2023-05-13T20:01:17.725Z,10.90
2023-05-13T20:03:45.949Z,10.80
2023-05-13T20:06:15.538Z,10.80
2023-05-13T20:08:43.791Z,11.00
2023-05-13T20:11:11.760Z,11.10
2023-05-13T20:13:40.171Z,11.10
2023-05-13T20:16:08.765Z,11.10
2023-05-13T20:18:38.186Z,11.00
2023-05-13T20:21:06.692Z,10.90
2023-05-13T20:23:36.324Z,10.90
2023-05-13T20:26:04.378Z,10.80
2023-05-13T20:28:32.501Z,10.80
2023-05-13T20:31:02.874Z,10.90
2023-05-13T20:33:31.040Z,10.90
2023-05-13T20:35:59.118Z,10.90
2023-05-13T20:38:27.215Z,11.00
2023-05-13T20:40:56.794Z,10.90
2023-05-13T20:43:24.771Z,11.00
2023-05-13T20:45:52.949Z,11.00
2023-05-13T20:48:21.260Z,11.00
2023-05-13T20:50:49.285Z,10.90
2023-05-13T20:53:17.429Z,11.00
2023-05-13T20:55:45.461Z,11.00
2023-05-13T20:58:16.703Z,11.10
2023-05-13T21:00:44.953Z,11.10
2023-05-13T21:03:13.586Z,11.10
2023-05-13T21:05:41.726Z,11.10
2023-05-13T21:08:09.950Z,11.10
2023-05-13T21:10:37.977Z,11.10
2023-05-13T21:13:05.984Z,11.10
2023-05-13T21:15:36.258Z,11.10
2023-05-13T21:18:04.476Z,11.10
2023-05-13T21:20:33.736Z,11.10
2023-05-13T21:23:01.892Z,11.10
2023-05-13T21:25:29.930Z,11.10
2023-05-13T21:27:57.955Z,11.10
2023-05-13T21:30:26.021Z,11.00
2023-05-13T21:32:55.874Z,11.00
2023-05-13T21:35:23.940Z,11.00
2023-05-13T21:37:52.368Z,11.00
2023-05-13T21:40:24.394Z,11.00
2023-05-13T21:42:52.609Z,10.90
2023-05-13T21:45:20.715Z,10.80
2023-05-13T21:47:48.748Z,10.90
2023-05-13T21:50:18.218Z,10.80
2023-05-13T21:52:46.228Z,10.80
2023-05-13T21:55:14.395Z,10.80
2023-05-13T21:57:42.380Z,10.80
2023-05-13T22:00:15.246Z,10.70
2023-05-13T22:02:43.492Z,10.50
2023-05-13T22:05:11.717Z,10.50
2023-05-13T22:07:41.268Z,10.40
2023-05-13T22:10:11.378Z,10.50
2023-05-13T22:12:39.399Z,10.50
2023-05-13T22:15:08.616Z,10.50
2023-05-13T22:17:36.840Z,10.50
2023-05-13T22:20:05.363Z,10.50
2023-05-13T22:22:33.354Z,10.50
2023-05-13T22:25:03.310Z,10.50
2023-05-13T22:27:31.316Z,10.50
2023-05-13T22:29:59.441Z,10.40
2023-05-13T22:32:27.455Z,10.50
2023-05-13T22:34:55.567Z,10.60
2023-05-13T22:37:23.623Z,10.60
2023-05-13T22:39:51.646Z,10.60
2023-05-13T22:42:21.252Z,10.60
2023-05-13T22:44:49.249Z,10.60
2023-05-13T22:47:17.340Z,10.70
2023-05-13T22:49:47.659Z,10.70
2023-05-13T22:52:15.727Z,10.70
2023-05-13T22:54:43.698Z,10.60
2023-05-13T22:57:11.925Z,10.70
2023-05-13T22:59:41.299Z,10.70
2023-05-13T23:02:12.498Z,10.70
2023-05-13T23:04:40.853Z,10.70
2023-05-13T23:07:11.467Z,10.70
2023-05-13T23:09:39.492Z,10.70
2023-05-13T23:12:08.535Z,10.80
2023-05-13T23:14:36.631Z,10.80
2023-05-13T23:17:06.129Z,10.80
2023-05-13T23:19:34.140Z,10.90
2023-05-13T23:22:02.088Z,10.90
2023-05-13T23:24:31.721Z,10.90
2023-05-13T23:26:59.776Z,10.90
2023-05-13T23:29:27.883Z,10.90
2023-05-13T23:31:56.193Z,10.80
2023-05-13T23:34:25.648Z,10.80
2023-05-13T23:36:53.812Z,10.70
2023-05-13T23:39:21.892Z,10.70
2023-05-13T23:41:50.136Z,10.70
2023-05-13T23:44:18.507Z,10.60
2023-05-13T23:46:46.545Z,10.60
2023-05-13T23:49:14.566Z,10.60
2023-05-13T23:51:44.287Z,10.60
2023-05-13T23:54:12.493Z,10.60
2023-05-13T23:56:40.456Z,10.60
2023-05-13T23:59:09.051Z,10.60
